createdAt,value
2018-04-08T00:00:20.583Z,12.03
2018-04-08T00:01:22.924Z,12.04
2018-04-08T00:02:24.311Z,11.90
2018-04-08T00:03:25.702Z,11.98
2018-04-08T00:04:27.073Z,12.01
2018-04-08T00:05:28.453Z,11.88
2018-04-08T00:06:29.841Z,11.90
2018-04-08T00:07:31.217Z,11.94
2018-04-08T00:08:33.238Z,11.87
2018-04-08T00:09:33.923Z,11.84
2018-04-08T00:10:35.314Z,11.84
2018-04-08T00:11:37.203Z,11.84
2018-04-08T00:12:38.588Z,11.82
2018-04-08T00:13:39.976Z,11.87
2018-04-08T00:14:41.362Z,11.79
2018-04-08T00:15:42.752Z,11.82
2018-04-08T00:16:44.127Z,11.79
2018-04-08T00:17:45.510Z,11.75
2018-04-08T00:18:46.895Z,11.78
2018-04-08T00:19:48.274Z,11.74
2018-04-08T00:20:49.670Z,11.77
2018-04-08T00:21:51.054Z,11.75
2018-04-08T00:22:52.432Z,11.64
2018-04-08T00:23:53.822Z,11.70
2018-04-08T00:24:55.226Z,11.64
2018-04-08T00:25:56.568Z,11.66
2018-04-08T00:26:57.950Z,11.62
2018-04-08T00:27:59.334Z,11.67
2018-04-08T00:29:00.710Z,11.59
2018-04-08T00:30:02.094Z,11.60
2018-04-08T00:31:04.374Z,11.66
2018-04-08T00:32:05.754Z,11.51
2018-04-08T00:33:07.139Z,11.48
2018-04-08T00:34:08.521Z,11.53
2018-04-08T00:35:09.908Z,11.53
2018-04-08T00:36:11.287Z,11.53
2018-04-08T00:37:12.672Z,11.62
2018-04-08T00:38:14.053Z,11.57
2018-04-08T00:39:15.433Z,11.49
2018-04-08T00:40:16.819Z,11.49
2018-04-08T00:41:18.195Z,11.48
2018-04-08T00:42:19.582Z,11.51
2018-04-08T00:43:20.971Z,11.44
2018-04-08T00:44:22.355Z,11.44
2018-04-08T00:45:23.730Z,11.46
2018-04-08T00:46:25.147Z,11.44
2018-04-08T00:47:26.494Z,11.36
2018-04-08T00:48:27.876Z,11.36
2018-04-08T00:49:29.256Z,11.41
2018-04-08T00:50:30.695Z,11.33
2018-04-08T00:51:32.027Z,11.38
2018-04-08T00:52:33.421Z,11.45
2018-04-08T00:53:34.802Z,11.33
2018-04-08T00:54:36.184Z,11.31
2018-04-08T00:55:37.569Z,11.31
2018-04-08T00:56:38.949Z,11.30
2018-04-08T00:57:40.333Z,11.31
2018-04-08T00:58:41.710Z,11.36
2018-04-08T00:59:43.093Z,11.27
2018-04-08T01:00:44.488Z,11.27
2018-04-08T01:01:45.864Z,11.33
2018-04-08T01:02:47.240Z,11.28
2018-04-08T01:03:48.628Z,11.31
2018-04-08T01:04:50.021Z,11.30
2018-04-08T01:05:51.401Z,11.33
2018-04-08T01:06:52.786Z,11.27
2018-04-08T01:07:54.172Z,11.31
2018-04-08T01:08:55.553Z,11.26
2018-04-08T01:09:56.943Z,11.31
2018-04-08T01:10:58.323Z,11.31
2018-04-08T01:11:59.703Z,11.28
2018-04-08T01:13:01.085Z,11.35
2018-04-08T01:14:02.474Z,11.36
2018-04-08T01:15:03.850Z,11.31
2018-04-08T01:16:05.226Z,11.31
2018-04-08T01:17:07.374Z,11.26
2018-04-08T01:18:08.756Z,11.33
2018-04-08T01:19:10.134Z,11.30
2018-04-08T01:20:11.519Z,11.35
2018-04-08T01:21:12.898Z,11.35
2018-04-08T01:22:14.280Z,11.23
2018-04-08T01:23:15.665Z,11.33
2018-04-08T01:24:17.044Z,11.30
2018-04-08T01:25:18.426Z,11.31
2018-04-08T01:26:19.802Z,11.33
2018-04-08T01:27:21.188Z,11.21
2018-04-08T01:28:22.569Z,11.27
2018-04-08T01:29:23.952Z,11.21
2018-04-08T01:30:25.334Z,11.21
2018-04-08T01:31:26.719Z,11.16
2018-04-08T01:32:28.100Z,11.20
2018-04-08T01:33:29.486Z,11.21
2018-04-08T01:34:30.869Z,11.20
2018-04-08T01:35:32.251Z,11.17
2018-04-08T01:36:33.629Z,11.13
2018-04-08T01:37:35.017Z,11.26
2018-04-08T01:38:36.396Z,11.20
2018-04-08T01:39:37.779Z,11.23
2018-04-08T01:40:39.164Z,11.16
2018-04-08T01:41:40.550Z,11.17
2018-04-08T01:42:41.928Z,11.16
2018-04-08T01:43:43.313Z,11.26
2018-04-08T01:44:44.694Z,11.17
2018-04-08T01:45:46.033Z,11.20
2018-04-08T01:46:47.426Z,11.16
2018-04-08T01:47:48.801Z,11.12
2018-04-08T01:48:50.180Z,11.05
2018-04-08T01:49:51.572Z,11.09
2018-04-08T01:50:52.948Z,11.17
2018-04-08T01:51:54.326Z,11.08
2018-04-08T01:52:55.711Z,11.02
2018-04-08T01:53:57.090Z,11.08
2018-04-08T01:54:58.470Z,11.11
2018-04-08T01:55:59.848Z,11.13
2018-04-08T01:57:01.236Z,11.09
2018-04-08T01:58:03.311Z,11.08
2018-04-08T01:59:04.690Z,11.03
2018-04-08T02:00:06.067Z,11.16
2018-04-08T02:01:07.455Z,11.13
2018-04-08T02:02:09.759Z,11.08
2018-04-08T02:03:10.162Z,11.03
2018-04-08T02:04:11.548Z,11.11
2018-04-08T02:05:12.927Z,11.06
2018-04-08T02:06:14.305Z,11.05
2018-04-08T02:07:15.699Z,11.01
2018-04-08T02:08:17.086Z,11.03
2018-04-08T02:09:18.467Z,11.02
2018-04-08T02:10:19.845Z,10.99
2018-04-08T02:11:21.221Z,10.99
2018-04-08T02:12:22.602Z,10.94
2018-04-08T02:13:23.990Z,10.99
2018-04-08T02:14:25.374Z,11.01
2018-04-08T02:15:26.756Z,11.02
2018-04-08T02:16:28.138Z,10.95
2018-04-08T02:17:29.526Z,11.01
2018-04-08T02:18:30.907Z,11.01
2018-04-08T02:19:32.967Z,10.95
2018-04-08T02:20:34.304Z,10.99
2018-04-08T02:21:35.681Z,11.02
2018-04-08T02:22:37.060Z,10.98
2018-04-08T02:23:38.448Z,11.05
2018-04-08T02:24:39.831Z,10.94
2018-04-08T02:25:41.214Z,10.98
2018-04-08T02:26:42.589Z,10.98
2018-04-08T02:27:43.969Z,10.99
2018-04-08T02:28:45.352Z,11.02
2018-04-08T02:29:46.732Z,10.94
2018-04-08T02:30:48.112Z,11.01
2018-04-08T02:31:49.494Z,11.01
2018-04-08T02:32:50.875Z,11.03
2018-04-08T02:33:52.254Z,11.03
2018-04-08T02:34:53.636Z,10.98
2018-04-08T02:35:55.020Z,10.99
2018-04-08T02:36:56.401Z,10.99
2018-04-08T02:37:57.782Z,10.99
2018-04-08T02:38:59.167Z,10.91
2018-04-08T02:40:00.559Z,10.94
2018-04-08T02:41:01.928Z,10.88
2018-04-08T02:42:03.309Z,10.93
2018-04-08T02:43:04.682Z,10.91
2018-04-08T02:44:06.076Z,10.91
2018-04-08T02:45:07.474Z,10.93
2018-04-08T02:46:08.854Z,10.88
2018-04-08T02:47:10.231Z,10.91
2018-04-08T02:48:11.622Z,10.86
2018-04-08T02:49:13.003Z,10.88
2018-04-08T02:50:14.387Z,10.94
2018-04-08T02:51:15.767Z,10.84
2018-04-08T02:52:17.147Z,10.76
2018-04-08T02:53:18.533Z,10.83
2018-04-08T02:54:19.908Z,10.81
2018-04-08T02:55:21.288Z,10.78
2018-04-08T02:56:22.674Z,10.80
2018-04-08T02:57:24.052Z,10.78
2018-04-08T02:58:25.438Z,10.80
2018-04-08T02:59:26.821Z,10.80
2018-04-08T03:00:28.207Z,10.80
2018-04-08T03:01:29.580Z,10.78
2018-04-08T03:02:30.960Z,10.84
2018-04-08T03:03:32.342Z,10.69
2018-04-08T03:04:33.721Z,10.69
2018-04-08T03:05:35.113Z,10.72
2018-04-08T03:06:36.488Z,10.75
2018-04-08T03:07:37.872Z,10.72
2018-04-08T03:08:39.248Z,10.69
2018-04-08T03:09:40.631Z,10.68
2018-04-08T03:10:42.014Z,10.65
2018-04-08T03:11:43.398Z,10.68
2018-04-08T03:12:44.742Z,10.69
2018-04-08T03:13:46.127Z,10.60
2018-04-08T03:14:47.511Z,10.66
2018-04-08T03:15:48.889Z,10.69
2018-04-08T03:16:50.273Z,10.66
2018-04-08T03:17:51.662Z,10.54
2018-04-08T03:18:53.043Z,10.55
2018-04-08T03:19:54.967Z,10.57
2018-04-08T03:20:56.335Z,10.58
2018-04-08T03:21:57.732Z,10.60
2018-04-08T03:22:59.119Z,10.60
2018-04-08T03:24:00.495Z,10.51
2018-04-08T03:25:01.881Z,10.54
2018-04-08T03:26:03.263Z,10.52
2018-04-08T03:27:04.645Z,10.54
2018-04-08T03:28:07.018Z,10.46
2018-04-08T03:29:08.411Z,10.42
2018-04-08T03:30:09.792Z,10.47
2018-04-08T03:31:11.172Z,10.49
2018-04-08T03:32:12.555Z,10.49
2018-04-08T03:33:13.937Z,10.42
2018-04-08T03:34:15.315Z,10.49
2018-04-08T03:35:16.703Z,10.49
2018-04-08T03:36:18.079Z,10.47
2018-04-08T03:37:19.464Z,10.43
2018-04-08T03:38:20.842Z,10.51
2018-04-08T03:39:22.220Z,10.42
2018-04-08T03:40:23.608Z,10.46
2018-04-08T03:41:24.987Z,10.32
2018-04-08T03:42:26.371Z,10.47
2018-04-08T03:43:27.755Z,10.29
2018-04-08T03:44:29.130Z,10.36
2018-04-08T03:45:30.519Z,10.36
2018-04-08T03:46:31.901Z,10.35
2018-04-08T03:47:33.273Z,10.35
2018-04-08T03:48:34.660Z,10.31
2018-04-08T03:49:36.033Z,10.35
2018-04-08T03:50:37.414Z,10.31
2018-04-08T03:51:38.815Z,10.32
2018-04-08T03:52:40.193Z,10.35
2018-04-08T03:53:41.581Z,10.35
2018-04-08T03:54:42.949Z,10.29
2018-04-08T03:55:44.335Z,10.35
2018-04-08T03:56:45.707Z,10.31
2018-04-08T03:57:47.086Z,10.32
2018-04-08T03:58:48.473Z,10.26
2018-04-08T03:59:49.856Z,10.35
2018-04-08T04:00:51.227Z,10.26
2018-04-08T04:01:52.606Z,10.29
2018-04-08T04:02:53.988Z,10.28
2018-04-08T04:03:55.373Z,10.26
2018-04-08T04:04:56.758Z,10.24
2018-04-08T04:05:58.159Z,10.29
2018-04-08T04:06:59.530Z,10.28
2018-04-08T04:08:00.906Z,10.25
2018-04-08T04:09:02.285Z,10.34
2018-04-08T04:10:03.664Z,10.26
2018-04-08T04:11:05.056Z,10.22
2018-04-08T04:12:06.436Z,10.20
2018-04-08T04:13:07.816Z,10.16
2018-04-08T04:14:09.200Z,10.17
2018-04-08T04:15:10.581Z,10.18
2018-04-08T04:16:11.966Z,10.18
2018-04-08T04:17:13.360Z,10.14
2018-04-08T04:18:14.735Z,10.25
2018-04-08T04:19:16.111Z,10.16
2018-04-08T04:20:17.495Z,10.26
2018-04-08T04:21:18.865Z,10.26
2018-04-08T04:22:20.252Z,10.24
2018-04-08T04:23:21.632Z,10.18
2018-04-08T04:24:23.015Z,10.26
2018-04-08T04:25:24.417Z,10.22
2018-04-08T04:26:26.296Z,10.25
2018-04-08T04:27:27.671Z,10.22
2018-04-08T04:28:29.066Z,10.28
2018-04-08T04:29:30.457Z,10.20
2018-04-08T04:30:31.841Z,10.29
2018-04-08T04:31:33.215Z,10.22
2018-04-08T04:32:34.602Z,10.20
2018-04-08T04:33:35.986Z,10.20
2018-04-08T04:34:37.367Z,10.25
2018-04-08T04:35:38.760Z,10.16
2018-04-08T04:36:40.138Z,10.16
2018-04-08T04:37:42.413Z,10.25
2018-04-08T04:38:43.756Z,10.17
2018-04-08T04:39:45.136Z,10.26
2018-04-08T04:40:46.521Z,10.20
2018-04-08T04:41:47.899Z,10.26
2018-04-08T04:42:49.287Z,10.18
2018-04-08T04:43:50.665Z,10.17
2018-04-08T04:44:52.049Z,10.24
2018-04-08T04:45:53.441Z,10.25
2018-04-08T04:46:54.819Z,10.20
2018-04-08T04:47:56.199Z,10.26
2018-04-08T04:48:57.580Z,10.32
2018-04-08T04:49:58.961Z,10.29
2018-04-08T04:51:00.344Z,10.31
2018-04-08T04:52:01.734Z,10.26
2018-04-08T04:53:03.116Z,10.28
2018-04-08T04:54:04.501Z,10.28
2018-04-08T04:55:05.887Z,10.31
2018-04-08T04:56:07.272Z,10.32
2018-04-08T04:57:08.653Z,10.32
2018-04-08T04:58:10.042Z,10.32
2018-04-08T04:59:11.426Z,10.35
2018-04-08T05:00:12.802Z,10.35
2018-04-08T05:01:14.183Z,10.36
2018-04-08T05:02:15.570Z,10.35
2018-04-08T05:03:16.962Z,10.32
2018-04-08T05:04:18.344Z,10.39
2018-04-08T05:05:19.730Z,10.42
2018-04-08T05:06:21.110Z,10.46
2018-04-08T05:07:22.486Z,10.49
2018-04-08T05:08:23.921Z,10.46
2018-04-08T05:09:25.318Z,10.47
2018-04-08T05:10:26.650Z,10.47
2018-04-08T05:11:28.032Z,10.54
2018-04-08T05:12:29.422Z,10.49
2018-04-08T05:13:30.799Z,10.63
2018-04-08T05:14:32.184Z,10.60
2018-04-08T05:15:33.573Z,10.66
2018-04-08T05:16:34.956Z,10.69
2018-04-08T05:17:36.339Z,10.68
2018-04-08T05:18:37.740Z,10.70
2018-04-08T05:19:39.124Z,10.75
2018-04-08T05:20:40.513Z,10.75
2018-04-08T05:21:41.897Z,10.76
2018-04-08T05:22:43.280Z,10.84
2018-04-08T05:23:44.665Z,10.83
2018-04-08T05:24:46.049Z,10.90
2018-04-08T05:25:47.436Z,10.91
2018-04-08T05:26:48.833Z,10.93
2018-04-08T05:27:50.208Z,10.93
2018-04-08T05:28:51.592Z,11.01
2018-04-08T05:29:52.983Z,10.94
2018-04-08T05:30:55.034Z,11.01
2018-04-08T05:31:56.425Z,11.08
2018-04-08T05:32:57.802Z,11.12
2018-04-08T05:33:59.186Z,11.12
2018-04-08T05:35:00.604Z,11.17
2018-04-08T05:36:01.954Z,11.21
2018-04-08T05:37:03.346Z,11.30
2018-04-08T05:38:04.738Z,11.27
2018-04-08T05:39:06.123Z,11.28
2018-04-08T05:40:07.516Z,11.31
2018-04-08T05:41:08.903Z,11.38
2018-04-08T05:42:10.287Z,11.42
2018-04-08T05:43:11.670Z,11.49
2018-04-08T05:44:13.049Z,11.44
2018-04-08T05:45:14.443Z,11.56
2018-04-08T05:46:15.831Z,11.53
2018-04-08T05:47:17.218Z,11.56
2018-04-08T05:48:18.605Z,11.62
2018-04-08T05:49:20.001Z,11.74
2018-04-08T05:50:21.391Z,11.75
2018-04-08T05:51:22.781Z,11.87
2018-04-08T05:52:24.169Z,11.79
2018-04-08T05:53:25.553Z,11.90
2018-04-08T05:54:26.941Z,11.94
2018-04-08T05:55:28.334Z,11.90
2018-04-08T05:56:29.713Z,11.90
2018-04-08T05:57:31.101Z,12.03
2018-04-08T05:58:32.484Z,11.87
2018-04-08T05:59:33.876Z,12.07
2018-04-08T06:00:36.222Z,12.03
2018-04-08T06:01:37.618Z,12.01
2018-04-08T06:02:39.004Z,12.04
2018-04-08T06:03:40.393Z,12.13
2018-04-08T06:04:41.778Z,12.23
2018-04-08T06:05:43.160Z,12.13
2018-04-08T06:06:44.561Z,12.22
2018-04-08T06:07:45.935Z,12.29
2018-04-08T06:08:47.331Z,12.30
2018-04-08T06:09:48.713Z,12.36
2018-04-08T06:10:50.096Z,12.37
2018-04-08T06:11:51.488Z,12.30
2018-04-08T06:12:52.875Z,12.38
2018-04-08T06:13:54.264Z,12.41
2018-04-08T06:14:55.651Z,12.43
2018-04-08T06:15:57.025Z,12.44
2018-04-08T06:16:58.425Z,12.58
2018-04-08T06:17:59.813Z,12.59
2018-04-08T06:19:01.192Z,12.63
2018-04-08T06:20:02.575Z,12.76
2018-04-08T06:21:03.975Z,12.81
2018-04-08T06:22:05.353Z,12.87
2018-04-08T06:23:08.305Z,12.91
2018-04-08T06:24:09.649Z,12.89
2018-04-08T06:25:11.041Z,12.99
2018-04-08T06:26:12.454Z,12.98
2018-04-08T06:27:13.835Z,13.09
2018-04-08T06:28:15.232Z,13.07
2018-04-08T06:29:16.620Z,13.09
2018-04-08T06:30:18.020Z,13.28
2018-04-08T06:31:19.400Z,13.27
2018-04-08T06:32:20.782Z,13.41
2018-04-08T06:33:22.172Z,13.43
2018-04-08T06:34:23.586Z,13.48
2018-04-08T06:35:24.946Z,13.63
2018-04-08T06:36:26.332Z,13.68
2018-04-08T06:37:28.259Z,13.69
2018-04-08T06:38:29.654Z,13.81
2018-04-08T06:39:31.047Z,13.94
2018-04-08T06:40:32.432Z,13.83
2018-04-08T06:41:33.823Z,14.02
2018-04-08T06:42:35.217Z,13.98
2018-04-08T06:43:36.636Z,14.09
2018-04-08T06:44:37.997Z,14.20
2018-04-08T06:45:39.401Z,14.19
2018-04-08T06:46:40.789Z,14.21
2018-04-08T06:47:42.171Z,14.34
2018-04-08T06:48:43.564Z,14.38
2018-04-08T06:49:44.966Z,14.45
2018-04-08T06:50:46.357Z,14.56
2018-04-08T06:51:47.754Z,14.49
2018-04-08T06:52:49.157Z,14.52
2018-04-08T06:53:50.533Z,14.64
2018-04-08T06:54:51.925Z,14.75
2018-04-08T06:55:53.314Z,14.75
2018-04-08T06:56:54.720Z,14.90
2018-04-08T06:57:56.770Z,15.00
2018-04-08T06:58:58.151Z,15.12
2018-04-08T06:59:59.546Z,15.22
2018-04-08T07:01:00.951Z,15.31
2018-04-08T07:02:02.330Z,15.27
2018-04-08T07:03:03.717Z,15.35
2018-04-08T07:04:05.112Z,15.51
2018-04-08T07:05:06.499Z,15.56
2018-04-08T07:06:07.886Z,15.52
2018-04-08T07:07:10.812Z,15.62
2018-04-08T07:08:11.259Z,15.59
2018-04-08T07:09:13.268Z,15.71
2018-04-08T07:10:14.661Z,15.76
2018-04-08T07:11:16.053Z,15.74
2018-04-08T07:12:17.441Z,15.85
2018-04-08T07:13:18.835Z,15.88
2018-04-08T07:14:20.229Z,15.84
2018-04-08T07:15:21.617Z,15.95
2018-04-08T07:16:23.008Z,16.03
2018-04-08T07:17:24.404Z,16.08
2018-04-08T07:18:25.805Z,16.11
2018-04-08T07:19:27.189Z,16.08
2018-04-08T07:20:28.575Z,16.14
2018-04-08T07:21:29.974Z,16.22
2018-04-08T07:22:31.363Z,16.36
2018-04-08T07:23:32.761Z,16.23
2018-04-08T07:24:34.156Z,16.30
2018-04-08T07:25:35.560Z,16.47
2018-04-08T07:26:37.526Z,16.60
2018-04-08T07:27:39.007Z,16.60
2018-04-08T07:28:40.399Z,16.75
2018-04-08T07:29:41.791Z,16.75
2018-04-08T07:30:43.179Z,16.75
2018-04-08T07:31:44.578Z,16.73
2018-04-08T07:32:45.975Z,16.85
2018-04-08T07:33:47.373Z,16.92
2018-04-08T07:34:48.761Z,16.90
2018-04-08T07:35:50.155Z,17.00
2018-04-08T07:36:51.547Z,17.05
2018-04-08T07:37:52.940Z,17.28
2018-04-08T07:38:54.344Z,17.30
2018-04-08T07:39:55.731Z,17.46
2018-04-08T07:40:57.139Z,17.68
2018-04-08T07:41:58.531Z,17.68
2018-04-08T07:42:59.937Z,17.65
2018-04-08T07:44:01.331Z,17.49
2018-04-08T07:45:02.713Z,17.55
2018-04-08T07:46:04.683Z,17.49
2018-04-08T07:47:06.070Z,17.55
2018-04-08T07:48:07.469Z,17.53
2018-04-08T07:49:08.871Z,17.54
2018-04-08T07:50:10.274Z,17.65
2018-04-08T07:51:11.676Z,17.71
2018-04-08T07:52:13.072Z,17.83
2018-04-08T07:53:15.222Z,17.91
2018-04-08T07:54:16.614Z,17.95
2018-04-08T07:55:18.008Z,18.01
2018-04-08T07:56:19.391Z,18.07
2018-04-08T07:57:20.791Z,18.21
2018-04-08T07:58:22.181Z,18.29
2018-04-08T07:59:23.581Z,18.46
2018-04-08T08:00:24.982Z,18.44
2018-04-08T08:01:26.362Z,18.38
2018-04-08T08:02:27.764Z,18.23
2018-04-08T08:03:29.157Z,18.35
2018-04-08T08:04:30.550Z,18.32
2018-04-08T08:05:31.943Z,18.29
2018-04-08T08:06:33.353Z,18.34
2018-04-08T08:07:34.754Z,18.49
2018-04-08T08:08:36.167Z,18.51
2018-04-08T08:09:37.517Z,18.31
2018-04-08T08:10:38.914Z,18.38
2018-04-08T08:11:40.309Z,18.14
2018-04-08T08:12:41.714Z,17.95
2018-04-08T08:13:43.107Z,18.07
2018-04-08T08:14:44.507Z,18.04
2018-04-08T08:15:45.899Z,18.04
2018-04-08T08:16:47.317Z,17.89
2018-04-08T08:17:48.657Z,17.96
2018-04-08T08:18:50.061Z,17.89
2018-04-08T08:19:51.452Z,17.81
2018-04-08T08:20:52.840Z,17.49
2018-04-08T08:21:54.246Z,17.51
2018-04-08T08:22:55.654Z,17.40
2018-04-08T08:23:57.058Z,17.54
2018-04-08T08:24:58.458Z,17.53
2018-04-08T08:25:59.856Z,17.66
2018-04-08T08:27:01.252Z,17.57
2018-04-08T08:28:02.640Z,17.68
2018-04-08T08:29:04.052Z,17.81
2018-04-08T08:30:05.446Z,17.95
2018-04-08T08:31:06.841Z,18.16
2018-04-08T08:32:08.233Z,18.23
2018-04-08T08:33:09.631Z,18.72
2018-04-08T08:34:11.014Z,19.97
2018-04-08T08:35:12.435Z,21.30
2018-04-08T08:36:13.838Z,22.70
2018-04-08T08:37:15.237Z,23.87
2018-04-08T08:38:16.658Z,24.51
2018-04-08T08:39:18.042Z,25.67
2018-04-08T08:40:19.462Z,26.78
2018-04-08T08:41:20.860Z,27.30
2018-04-08T08:42:22.255Z,27.84
2018-04-08T08:43:23.671Z,28.21
2018-04-08T08:44:25.080Z,28.74
2018-04-08T08:45:26.483Z,29.07
2018-04-08T08:46:27.879Z,28.79
2018-04-08T08:47:29.285Z,29.08
2018-04-08T08:48:30.686Z,29.67
2018-04-08T08:49:32.097Z,29.97
2018-04-08T08:50:33.551Z,30.32
2018-04-08T08:51:34.908Z,30.28
2018-04-08T08:52:36.309Z,30.22
2018-04-08T08:53:37.716Z,30.83
2018-04-08T08:54:39.132Z,31.60
2018-04-08T08:55:40.543Z,32.05
2018-04-08T08:56:41.941Z,32.53
2018-04-08T08:57:43.352Z,33.00
2018-04-08T08:58:44.767Z,33.72
2018-04-08T08:59:46.165Z,34.03
2018-04-08T09:00:47.579Z,34.50
2018-04-08T09:01:49.005Z,34.87
2018-04-08T09:02:50.410Z,35.32
2018-04-08T09:03:51.827Z,35.66
2018-04-08T09:04:53.239Z,35.91
2018-04-08T09:05:54.648Z,35.80
2018-04-08T09:06:56.065Z,35.47
2018-04-08T09:07:57.479Z,35.66
2018-04-08T09:08:58.887Z,35.56
2018-04-08T09:10:01.109Z,35.74
2018-04-08T09:11:03.018Z,35.50
2018-04-08T09:12:04.440Z,34.72
2018-04-08T09:13:05.855Z,34.76
2018-04-08T09:14:07.258Z,33.94
2018-04-08T09:15:08.667Z,33.56
2018-04-08T09:16:10.074Z,34.00
2018-04-08T09:17:11.482Z,34.15
2018-04-08T09:18:12.884Z,34.43
2018-04-08T09:19:14.300Z,35.29
2018-04-08T09:20:15.723Z,35.96
2018-04-08T09:21:17.185Z,35.99
2018-04-08T09:22:18.599Z,36.79
2018-04-08T09:23:20.008Z,37.18
2018-04-08T09:24:21.427Z,37.82
2018-04-08T09:25:22.845Z,37.65
2018-04-08T09:26:24.258Z,38.22
2018-04-08T09:27:25.672Z,37.54
2018-04-08T09:28:27.090Z,37.87
2018-04-08T09:29:28.498Z,37.75
2018-04-08T09:30:29.918Z,37.45
2018-04-08T09:31:31.333Z,37.38
2018-04-08T09:32:32.739Z,37.47
2018-04-08T09:33:34.148Z,37.16
2018-04-08T09:34:35.580Z,36.97
2018-04-08T09:35:36.993Z,37.47
2018-04-08T09:36:38.392Z,37.31
2018-04-08T09:37:39.801Z,36.68
2018-04-08T09:38:41.210Z,36.37
2018-04-08T09:39:42.631Z,36.50
2018-04-08T09:40:44.041Z,36.56
2018-04-08T09:41:45.452Z,36.62
2018-04-08T09:42:46.872Z,37.20
2018-04-08T09:43:48.286Z,37.43
2018-04-08T09:44:49.685Z,36.96
2018-04-08T09:45:51.091Z,37.05
2018-04-08T09:46:52.499Z,36.79
2018-04-08T09:47:53.920Z,36.68
2018-04-08T09:48:55.338Z,36.40
2018-04-08T09:49:56.754Z,36.27
2018-04-08T09:50:58.210Z,35.98
2018-04-08T09:51:59.593Z,36.00
2018-04-08T09:53:01.007Z,35.99
2018-04-08T09:54:02.418Z,35.76
2018-04-08T09:55:03.885Z,36.19
2018-04-08T09:56:05.255Z,36.33
2018-04-08T09:57:06.680Z,36.78
2018-04-08T09:58:08.085Z,37.24
2018-04-08T09:59:09.504Z,37.54
2018-04-08T10:00:10.918Z,37.73
2018-04-08T10:01:12.330Z,37.77
2018-04-08T10:02:13.748Z,38.33
2018-04-08T10:03:15.176Z,38.86
2018-04-08T10:04:16.592Z,39.38
2018-04-08T10:05:18.001Z,39.69
2018-04-08T10:06:19.410Z,39.99
2018-04-08T10:07:20.822Z,40.07
2018-04-08T10:08:22.256Z,40.66
2018-04-08T10:09:23.659Z,40.78
2018-04-08T10:10:25.081Z,40.58
2018-04-08T10:11:26.485Z,39.85
2018-04-08T10:12:27.900Z,39.25
2018-04-08T10:13:29.324Z,38.68
2018-04-08T10:14:30.748Z,38.87
2018-04-08T10:15:32.180Z,39.02
2018-04-08T10:16:33.596Z,39.31
2018-04-08T10:17:35.016Z,38.71
2018-04-08T10:18:36.419Z,38.79
2018-04-08T10:19:37.839Z,38.63
2018-04-08T10:20:39.255Z,38.68
2018-04-08T10:21:40.672Z,38.06
2018-04-08T10:22:42.087Z,38.74
2018-04-08T10:23:43.499Z,38.43
2018-04-08T10:24:44.919Z,38.28
2018-04-08T10:25:46.335Z,38.34
2018-04-08T10:26:47.767Z,38.50
2018-04-08T10:27:49.163Z,38.82
2018-04-08T10:28:50.580Z,39.05
2018-04-08T10:29:51.993Z,38.72
2018-04-08T10:30:53.411Z,39.20
2018-04-08T10:31:54.826Z,40.00
2018-04-08T10:32:56.232Z,40.58
2018-04-08T10:33:57.642Z,40.07
2018-04-08T10:34:59.054Z,39.19
2018-04-08T10:36:00.432Z,39.14
2018-04-08T10:37:01.801Z,39.32
2018-04-08T10:38:03.173Z,40.06
2018-04-08T10:39:04.547Z,38.92
2018-04-08T10:40:05.931Z,38.67
2018-04-08T10:41:07.307Z,38.95
2018-04-08T10:42:08.711Z,39.25
2018-04-08T10:43:10.128Z,38.93
2018-04-08T10:44:11.543Z,37.99
2018-04-08T10:45:12.969Z,38.06
2018-04-08T10:46:14.380Z,37.69
2018-04-08T10:47:15.802Z,37.96
2018-04-08T10:48:17.210Z,37.05
2018-04-08T10:49:18.638Z,36.87
2018-04-08T10:50:20.061Z,36.64
2018-04-08T10:51:21.485Z,35.49
2018-04-08T10:52:22.900Z,35.10
2018-04-08T10:53:24.318Z,35.85
2018-04-08T10:54:25.729Z,36.50
2018-04-08T10:55:27.145Z,37.30
2018-04-08T10:56:28.561Z,37.28
2018-04-08T10:57:29.964Z,36.90
2018-04-08T10:58:31.380Z,36.19
2018-04-08T10:59:32.799Z,35.84
2018-04-08T11:00:34.220Z,36.31
2018-04-08T11:01:35.643Z,36.33
2018-04-08T11:02:37.051Z,35.32
2018-04-08T11:03:38.475Z,34.72
2018-04-08T11:04:39.896Z,34.55
2018-04-08T11:05:41.307Z,34.28
2018-04-08T11:06:42.713Z,33.99
2018-04-08T11:07:44.094Z,33.05
2018-04-08T11:08:45.503Z,32.35
2018-04-08T11:09:46.910Z,31.03
2018-04-08T11:10:48.273Z,30.11
2018-04-08T11:11:49.650Z,29.45
2018-04-08T11:12:51.014Z,28.55
2018-04-08T11:13:52.427Z,27.55
2018-04-08T11:14:53.827Z,27.09
2018-04-08T11:15:55.237Z,26.59
2018-04-08T11:16:56.669Z,26.51
2018-04-08T11:17:58.056Z,26.60
2018-04-08T11:18:59.471Z,26.90
2018-04-08T11:20:00.877Z,27.61
2018-04-08T11:21:02.282Z,28.30
2018-04-08T11:22:03.704Z,29.21
2018-04-08T11:23:05.115Z,29.92
2018-04-08T11:24:06.522Z,30.91
2018-04-08T11:25:07.933Z,31.34
2018-04-08T11:26:09.338Z,31.35
2018-04-08T11:27:10.733Z,31.59
2018-04-08T11:28:12.149Z,31.82
2018-04-08T11:29:13.552Z,31.91
2018-04-08T11:30:14.959Z,31.99
2018-04-08T11:31:16.353Z,32.40
2018-04-08T11:32:17.767Z,32.95
2018-04-08T11:33:19.170Z,33.33
2018-04-08T11:34:20.584Z,33.62
2018-04-08T11:35:22.050Z,34.14
2018-04-08T11:36:23.451Z,34.49
2018-04-08T11:37:24.861Z,34.26
2018-04-08T11:38:26.252Z,34.46
2018-04-08T11:39:27.651Z,34.93
2018-04-08T11:40:29.071Z,35.20
2018-04-08T11:41:30.484Z,34.86
2018-04-08T11:42:31.901Z,35.17
2018-04-08T11:43:33.298Z,36.08
2018-04-08T11:44:34.709Z,35.89
2018-04-08T11:45:36.134Z,36.00
2018-04-08T11:46:37.560Z,35.68
2018-04-08T11:47:38.953Z,35.64
2018-04-08T11:48:40.353Z,36.21
2018-04-08T11:49:41.770Z,36.16
2018-04-08T11:50:43.185Z,36.50
2018-04-08T11:51:44.592Z,36.93
2018-04-08T11:52:46.011Z,37.01
2018-04-08T11:53:47.411Z,36.86
2018-04-08T11:54:48.819Z,36.65
2018-04-08T11:55:50.238Z,36.49
2018-04-08T11:56:51.654Z,36.46
2018-04-08T11:57:53.059Z,36.78
2018-04-08T11:58:54.479Z,37.08
2018-04-08T11:59:55.896Z,37.34
2018-04-08T12:00:57.306Z,37.65
2018-04-08T12:01:58.741Z,37.97
2018-04-08T12:03:00.128Z,38.21
2018-04-08T12:04:01.544Z,37.68
2018-04-08T12:05:02.947Z,38.34
2018-04-08T12:06:04.362Z,38.30
2018-04-08T12:07:05.777Z,37.95
2018-04-08T12:08:07.181Z,38.63
2018-04-08T12:09:08.592Z,38.22
2018-04-08T12:10:10.017Z,37.75
2018-04-08T12:11:11.438Z,37.46
2018-04-08T12:12:12.874Z,37.24
2018-04-08T12:13:14.268Z,37.33
2018-04-08T12:14:15.679Z,37.54
2018-04-08T12:15:17.095Z,38.33
2018-04-08T12:16:18.496Z,39.01
2018-04-08T12:17:19.910Z,39.32
2018-04-08T12:18:21.320Z,39.17
2018-04-08T12:19:22.722Z,39.02
2018-04-08T12:20:24.145Z,38.41
2018-04-08T12:21:25.549Z,37.77
2018-04-08T12:22:26.961Z,37.97
2018-04-08T12:23:28.374Z,37.88
2018-04-08T12:24:29.791Z,38.06
2018-04-08T12:25:31.208Z,37.72
2018-04-08T12:26:32.621Z,37.56
2018-04-08T12:27:34.049Z,37.75
2018-04-08T12:28:35.455Z,37.24
2018-04-08T12:29:37.390Z,36.86
2018-04-08T12:30:38.810Z,37.53
2018-04-08T12:31:40.215Z,37.27
2018-04-08T12:32:41.626Z,36.78
2018-04-08T12:33:43.048Z,36.79
2018-04-08T12:34:44.459Z,36.96
2018-04-08T12:35:45.876Z,37.06
2018-04-08T12:36:47.282Z,37.15
2018-04-08T12:37:48.686Z,37.35
2018-04-08T12:38:50.103Z,37.18
2018-04-08T12:39:51.518Z,36.60
2018-04-08T12:40:52.940Z,36.34
2018-04-08T12:41:54.347Z,35.95
2018-04-08T12:42:55.762Z,36.23
2018-04-08T12:43:57.174Z,36.12
2018-04-08T12:44:58.591Z,35.24
2018-04-08T12:45:59.989Z,34.80
2018-04-08T12:47:01.404Z,34.58
2018-04-08T12:48:02.816Z,34.46
2018-04-08T12:49:04.233Z,33.97
2018-04-08T12:50:05.649Z,33.63
2018-04-08T12:51:07.067Z,33.07
2018-04-08T12:52:08.470Z,32.36
2018-04-08T12:53:09.882Z,31.56
2018-04-08T12:54:11.295Z,30.82
2018-04-08T12:55:12.699Z,30.57
2018-04-08T12:56:14.114Z,29.70
2018-04-08T12:57:15.526Z,29.03
2018-04-08T12:58:16.944Z,28.54
2018-04-08T12:59:18.365Z,28.33
2018-04-08T13:00:19.776Z,28.60
2018-04-08T13:01:21.184Z,28.73
2018-04-08T13:02:22.605Z,28.87
2018-04-08T13:03:24.009Z,29.21
2018-04-08T13:04:25.411Z,29.52
2018-04-08T13:05:26.832Z,29.94
2018-04-08T13:06:28.230Z,30.03
2018-04-08T13:07:29.645Z,29.94
2018-04-08T13:08:31.048Z,29.29
2018-04-08T13:09:32.452Z,28.77
2018-04-08T13:10:33.896Z,28.21